createdAt,value
2018-09-19T00:00:11.333Z,0.00
2018-09-19T00:01:11.281Z,0.00
2018-09-19T00:02:11.233Z,0.00
2018-09-19T00:03:11.191Z,0.00
2018-09-19T00:04:11.190Z,0.00
2018-09-19T00:05:11.105Z,0.00
2018-09-19T00:06:11.071Z,0.00
2018-09-19T00:07:11.019Z,0.00
2018-09-19T00:08:10.975Z,0.00
2018-09-19T00:09:10.937Z,0.00
2018-09-19T00:10:10.889Z,0.00
2018-09-19T00:11:10.846Z,0.00
2018-09-19T00:12:10.804Z,0.00
2018-09-19T00:13:10.762Z,0.00
2018-09-19T00:14:10.722Z,0.00
2018-09-19T00:15:10.675Z,0.00
2018-09-19T00:16:10.634Z,0.00
2018-09-19T00:17:10.596Z,0.00
2018-09-19T00:18:10.550Z,0.00
2018-09-19T00:19:10.504Z,0.00
2018-09-19T00:20:10.491Z,0.00
2018-09-19T00:21:10.421Z,0.00
2018-09-19T00:22:10.377Z,0.00
2018-09-19T00:23:10.357Z,0.00
2018-09-19T00:24:10.294Z,0.00
2018-09-19T00:25:10.258Z,0.00
2018-09-19T00:26:10.205Z,0.00
2018-09-19T00:27:10.166Z,0.00
2018-09-19T00:28:10.121Z,0.00
2018-09-19T00:29:10.080Z,0.00
2018-09-19T00:30:10.044Z,0.00
2018-09-19T00:31:09.994Z,0.00
2018-09-19T00:32:09.951Z,0.00
2018-09-19T00:33:09.910Z,0.00
2018-09-19T00:34:09.862Z,0.00
2018-09-19T00:35:09.821Z,0.00
2018-09-19T00:36:09.790Z,0.00
2018-09-19T00:37:09.735Z,0.00
2018-09-19T00:38:09.707Z,0.00
2018-09-19T00:39:09.654Z,0.00
2018-09-19T00:40:09.613Z,0.00
2018-09-19T00:41:09.565Z,0.00
2018-09-19T00:42:09.520Z,0.00
2018-09-19T00:43:09.479Z,0.00
2018-09-19T00:44:09.437Z,0.00
2018-09-19T00:45:09.403Z,0.00
2018-09-19T00:46:09.359Z,0.00
2018-09-19T00:47:09.310Z,0.00
2018-09-19T00:48:09.272Z,0.00
2018-09-19T00:49:09.224Z,0.00
2018-09-19T00:50:09.192Z,0.00
2018-09-19T00:51:09.141Z,0.00
2018-09-19T00:52:09.095Z,0.00
2018-09-19T00:53:09.048Z,0.00
2018-09-19T00:54:09.010Z,0.00
2018-09-19T00:55:08.964Z,0.00
2018-09-19T00:56:08.920Z,0.00
2018-09-19T00:57:08.882Z,0.00
2018-09-19T00:58:08.834Z,0.00
2018-09-19T00:59:08.791Z,0.00
2018-09-19T01:00:08.757Z,0.00
2018-09-19T01:01:08.707Z,0.00
2018-09-19T01:02:08.661Z,0.00
2018-09-19T01:03:08.621Z,0.00
2018-09-19T01:04:08.579Z,0.00
2018-09-19T01:05:08.535Z,0.00
2018-09-19T01:06:08.491Z,0.00
2018-09-19T01:07:08.446Z,0.00
2018-09-19T01:08:08.408Z,0.00
2018-09-19T01:09:08.361Z,0.00
2018-09-19T01:10:08.324Z,0.00
2018-09-19T01:11:08.293Z,0.00
2018-09-19T01:12:08.237Z,0.00
2018-09-19T01:13:08.207Z,0.00
2018-09-19T01:14:08.148Z,0.00
2018-09-19T01:15:08.105Z,0.00
2018-09-19T01:16:08.060Z,0.00
2018-09-19T01:17:08.018Z,0.00
2018-09-19T01:18:07.984Z,0.00
2018-09-19T01:19:07.930Z,0.00
2018-09-19T01:20:07.894Z,0.00
2018-09-19T01:21:07.848Z,0.00
2018-09-19T01:22:07.804Z,0.00
2018-09-19T01:23:07.757Z,0.00
2018-09-19T01:24:07.717Z,0.00
2018-09-19T01:25:07.676Z,0.00
2018-09-19T01:26:07.628Z,0.00
2018-09-19T01:27:07.585Z,0.00
2018-09-19T01:28:07.545Z,0.00
2018-09-19T01:29:07.508Z,0.00
2018-09-19T01:30:07.461Z,0.00
2018-09-19T01:31:07.415Z,0.00
2018-09-19T01:32:07.372Z,0.00
2018-09-19T01:33:07.329Z,0.00
2018-09-19T01:34:07.297Z,0.00
2018-09-19T01:35:07.241Z,0.00
2018-09-19T01:36:07.199Z,0.00
2018-09-19T01:37:07.155Z,0.00
2018-09-19T01:38:07.115Z,0.00
2018-09-19T01:39:07.069Z,0.00
2018-09-19T01:40:07.027Z,0.00
2018-09-19T01:41:06.993Z,0.00
2018-09-19T01:42:06.936Z,0.00
2018-09-19T01:43:06.894Z,0.00
2018-09-19T01:44:06.853Z,0.00
2018-09-19T01:45:06.815Z,0.00
2018-09-19T01:46:06.768Z,0.00
2018-09-19T01:47:06.725Z,0.00
2018-09-19T01:48:06.681Z,0.00
2018-09-19T01:49:06.648Z,0.00
2018-09-19T01:50:06.593Z,0.00
2018-09-19T01:51:06.550Z,0.00
2018-09-19T01:52:06.510Z,0.00
2018-09-19T01:53:06.464Z,0.00
2018-09-19T01:54:06.429Z,0.00
2018-09-19T01:55:06.379Z,0.00
2018-09-19T01:56:06.331Z,0.00
2018-09-19T01:57:06.288Z,0.00
2018-09-19T01:58:06.245Z,0.00
2018-09-19T01:59:06.202Z,0.00
2018-09-19T02:00:06.159Z,0.00
2018-09-19T02:01:06.115Z,0.00
2018-09-19T02:02:06.072Z,0.00
2018-09-19T02:03:06.033Z,0.00
2018-09-19T02:04:05.987Z,0.00
2018-09-19T02:05:05.993Z,0.00
2018-09-19T02:06:05.899Z,0.00
2018-09-19T02:07:05.859Z,0.00
2018-09-19T02:08:05.816Z,0.00
2018-09-19T02:09:05.775Z,0.00
2018-09-19T02:10:05.728Z,0.00
2018-09-19T02:11:05.683Z,0.00
2018-09-19T02:12:05.653Z,0.00
2018-09-19T02:13:05.608Z,0.00
2018-09-19T02:14:05.552Z,0.00
2018-09-19T02:15:05.511Z,0.00
2018-09-19T02:16:05.473Z,0.00
2018-09-19T02:17:05.426Z,0.00
2018-09-19T02:18:05.378Z,0.00
2018-09-19T02:19:05.336Z,0.00
2018-09-19T02:20:05.295Z,0.00
2018-09-19T02:21:05.258Z,0.00
2018-09-19T02:22:05.204Z,0.00
2018-09-19T02:23:05.165Z,0.00
2018-09-19T02:24:05.119Z,0.00
2018-09-19T02:25:05.079Z,0.00
2018-09-19T02:26:05.034Z,0.00
2018-09-19T02:27:04.999Z,0.00
2018-09-19T02:28:04.943Z,0.00
2018-09-19T02:29:04.907Z,0.00
2018-09-19T02:30:04.857Z,0.00
2018-09-19T02:31:04.817Z,0.00
2018-09-19T02:32:04.783Z,0.00
2018-09-19T02:33:04.731Z,0.00
2018-09-19T02:34:04.683Z,0.00
2018-09-19T02:35:04.645Z,0.00
2018-09-19T02:36:04.605Z,0.00
2018-09-19T02:37:04.574Z,0.00
2018-09-19T02:38:04.513Z,0.00
2018-09-19T02:39:04.474Z,0.00
2018-09-19T02:40:04.425Z,0.00
2018-09-19T02:41:04.381Z,0.00
2018-09-19T02:42:04.339Z,0.00
2018-09-19T02:43:04.309Z,0.00
2018-09-19T02:44:04.251Z,0.00
2018-09-19T02:45:04.227Z,0.00
2018-09-19T02:46:04.164Z,0.00
2018-09-19T02:47:04.123Z,0.00
2018-09-19T02:48:04.079Z,0.00
2018-09-19T02:49:04.036Z,0.00
2018-09-19T02:50:03.989Z,0.00
2018-09-19T02:51:03.947Z,0.00
2018-09-19T02:52:03.904Z,0.00
2018-09-19T02:53:03.861Z,0.00
2018-09-19T02:54:03.818Z,0.00
2018-09-19T02:55:03.775Z,0.00
2018-09-19T02:56:03.730Z,0.00
2018-09-19T02:57:03.687Z,0.00
2018-09-19T02:58:03.641Z,0.00
2018-09-19T02:59:03.597Z,0.00
2018-09-19T03:00:03.554Z,0.00
2018-09-19T03:01:03.510Z,0.00
2018-09-19T03:02:03.467Z,0.00
2018-09-19T03:03:03.425Z,0.00
2018-09-19T03:04:03.381Z,0.00
2018-09-19T03:05:03.352Z,0.00
2018-09-19T03:06:03.293Z,0.00
2018-09-19T03:07:03.250Z,0.00
2018-09-19T03:08:03.211Z,0.00
2018-09-19T03:09:03.172Z,0.00
2018-09-19T03:10:03.119Z,0.00
2018-09-19T03:11:03.075Z,0.00
2018-09-19T03:12:03.030Z,0.00
2018-09-19T03:13:02.990Z,0.00
2018-09-19T03:14:02.946Z,0.00
2018-09-19T03:15:02.900Z,0.00
2018-09-19T03:16:02.858Z,0.00
2018-09-19T03:17:02.848Z,0.00
2018-09-19T03:18:02.778Z,0.00
2018-09-19T03:19:02.745Z,0.00
2018-09-19T03:20:02.698Z,0.00
2018-09-19T03:21:02.641Z,0.00
2018-09-19T03:22:02.610Z,0.00
2018-09-19T03:23:02.562Z,0.00
2018-09-19T03:24:02.539Z,0.00
2018-09-19T03:25:02.473Z,0.00
2018-09-19T03:26:02.420Z,0.00
2018-09-19T03:27:02.386Z,0.00
2018-09-19T03:28:02.334Z,0.00
2018-09-19T03:29:02.315Z,0.00
2018-09-19T03:30:02.249Z,0.00
2018-09-19T03:31:02.207Z,0.00
2018-09-19T03:32:02.175Z,0.00
2018-09-19T03:33:02.118Z,0.00
2018-09-19T03:34:02.074Z,0.00
2018-09-19T03:35:02.028Z,0.00
2018-09-19T03:36:01.991Z,0.00
2018-09-19T03:37:01.964Z,0.00
2018-09-19T03:38:01.903Z,0.00
2018-09-19T03:39:01.853Z,0.00
2018-09-19T03:40:01.812Z,0.00
2018-09-19T03:41:01.770Z,0.00
2018-09-19T03:42:01.725Z,0.00
2018-09-19T03:43:01.685Z,0.00
2018-09-19T03:44:01.638Z,0.00
2018-09-19T03:45:01.594Z,0.00
2018-09-19T03:46:01.554Z,0.00
2018-09-19T03:47:01.510Z,0.00
2018-09-19T03:48:01.466Z,0.00
2018-09-19T03:49:01.423Z,0.00
2018-09-19T03:50:01.374Z,0.00
2018-09-19T03:51:01.330Z,0.00
2018-09-19T03:52:01.288Z,0.00
2018-09-19T03:53:01.247Z,0.00
2018-09-19T03:54:01.197Z,0.00
2018-09-19T03:55:01.156Z,0.00
2018-09-19T03:56:01.113Z,0.00
2018-09-19T03:57:01.072Z,0.00
2018-09-19T03:58:01.039Z,0.00
2018-09-19T03:59:00.986Z,0.00
2018-09-19T04:00:00.951Z,0.00
2018-09-19T04:01:00.893Z,0.00
2018-09-19T04:02:00.850Z,0.00
2018-09-19T04:03:00.808Z,0.00
2018-09-19T04:04:00.770Z,0.00
2018-09-19T04:05:00.720Z,0.00
2018-09-19T04:06:00.682Z,0.00
2018-09-19T04:07:00.634Z,0.00
2018-09-19T04:08:00.616Z,0.00
2018-09-19T04:09:00.542Z,0.00
2018-09-19T04:10:00.500Z,0.00
2018-09-19T04:11:00.458Z,0.00
2018-09-19T04:12:00.414Z,0.00
2018-09-19T04:13:00.371Z,0.00
2018-09-19T04:14:00.326Z,0.00
2018-09-19T04:15:00.298Z,0.00
2018-09-19T04:16:00.238Z,0.00
2018-09-19T04:17:00.194Z,0.00
2018-09-19T04:18:00.152Z,0.00
2018-09-19T04:19:00.110Z,0.00
2018-09-19T04:20:00.063Z,0.00
2018-09-19T04:21:00.026Z,0.00
2018-09-19T04:21:59.975Z,0.00
2018-09-19T04:22:59.929Z,0.00
2018-09-19T04:23:59.890Z,0.00
2018-09-19T04:24:59.852Z,0.00
2018-09-19T04:25:59.798Z,0.00
2018-09-19T04:26:59.756Z,0.00
2018-09-19T04:27:59.714Z,0.00
2018-09-19T04:28:59.668Z,0.00
2018-09-19T04:29:59.625Z,0.00
2018-09-19T04:30:59.582Z,0.00
2018-09-19T04:31:59.545Z,0.00
2018-09-19T04:32:59.494Z,0.00
2018-09-19T04:33:59.446Z,0.00
2018-09-19T04:34:59.406Z,0.00
2018-09-19T04:35:59.369Z,0.00
2018-09-19T04:36:59.319Z,0.00
2018-09-19T04:37:59.271Z,0.00
2018-09-19T04:38:59.271Z,0.00
2018-09-19T04:39:59.191Z,0.00
2018-09-19T04:40:59.147Z,0.00
2018-09-19T04:41:59.097Z,0.00
2018-09-19T04:42:59.055Z,0.00
2018-09-19T04:43:59.010Z,0.00
2018-09-19T04:44:59.008Z,0.00
2018-09-19T04:45:58.920Z,0.00
2018-09-19T04:46:58.887Z,0.00
2018-09-19T04:47:58.834Z,0.00
2018-09-19T04:48:58.801Z,0.00
2018-09-19T04:49:58.751Z,0.00
2018-09-19T04:50:58.700Z,0.00
2018-09-19T04:51:58.658Z,4.00
2018-09-19T04:52:58.624Z,4.00
2018-09-19T04:53:58.577Z,0.00
2018-09-19T04:54:58.532Z,4.00
2018-09-19T04:55:58.490Z,8.00
2018-09-19T04:56:58.443Z,4.00
2018-09-19T04:57:58.398Z,8.00
2018-09-19T04:58:58.356Z,8.00
2018-09-19T04:59:58.306Z,8.00
2018-09-19T05:00:58.280Z,8.00
2018-09-19T05:01:58.222Z,16.00
2018-09-19T05:02:58.174Z,16.00
2018-09-19T05:03:58.134Z,20.00
2018-09-19T05:04:58.085Z,24.00
2018-09-19T05:05:58.044Z,24.00
2018-09-19T05:06:58.004Z,28.00
2018-09-19T05:07:57.953Z,28.00
2018-09-19T05:08:57.909Z,36.00
2018-09-19T05:09:57.870Z,40.00
2018-09-19T05:10:57.828Z,44.00
2018-09-19T05:11:57.778Z,48.00
2018-09-19T05:12:57.737Z,56.00
2018-09-19T05:13:57.690Z,60.00
2018-09-19T05:14:57.645Z,60.00
2018-09-19T05:15:57.621Z,68.00
2018-09-19T05:16:57.558Z,76.00
2018-09-19T05:17:57.518Z,80.00
2018-09-19T05:18:57.470Z,88.00
2018-09-19T05:19:57.426Z,96.00
2018-09-19T05:20:57.386Z,104.00
2018-09-19T05:21:57.336Z,108.00
2018-09-19T05:22:57.296Z,116.00
2018-09-19T05:23:57.250Z,124.00
2018-09-19T05:24:57.208Z,136.00
2018-09-19T05:25:57.164Z,144.00
2018-09-19T05:26:57.118Z,152.00
2018-09-19T05:27:57.080Z,160.00
2018-09-19T05:28:57.043Z,172.00
2018-09-19T05:29:56.985Z,184.00
2018-09-19T05:30:56.945Z,192.00
2018-09-19T05:31:56.903Z,204.00
2018-09-19T05:32:56.857Z,228.00
2018-09-19T05:33:56.808Z,240.00
2018-09-19T05:34:56.768Z,256.00
2018-09-19T05:35:56.730Z,268.00
2018-09-19T05:36:56.679Z,284.00
2018-09-19T05:37:56.636Z,296.00
2018-09-19T05:38:56.590Z,312.00
2018-09-19T05:39:56.547Z,328.00
2018-09-19T05:40:56.503Z,340.00
2018-09-19T05:41:56.461Z,356.00
2018-09-19T05:42:56.412Z,372.00
2018-09-19T05:43:56.369Z,388.00
2018-09-19T05:44:56.325Z,404.00
2018-09-19T05:45:56.281Z,416.00
2018-09-19T05:46:56.241Z,432.00
2018-09-19T05:47:56.201Z,448.00
2018-09-19T05:48:56.149Z,460.00
2018-09-19T05:49:56.108Z,476.00
2018-09-19T05:50:56.066Z,488.00
2018-09-19T05:51:56.016Z,504.00
2018-09-19T05:52:55.981Z,516.00
2018-09-19T05:53:55.936Z,524.00
2018-09-19T05:54:55.891Z,536.00
2018-09-19T05:55:55.844Z,544.00
2018-09-19T05:56:55.811Z,556.00
2018-09-19T05:57:55.752Z,572.00
2018-09-19T05:58:55.712Z,596.00
2018-09-19T05:59:55.669Z,612.00
2018-09-19T06:00:55.625Z,624.00
2018-09-19T06:01:55.577Z,640.00
2018-09-19T06:02:55.545Z,652.00
2018-09-19T06:03:55.492Z,664.00
2018-09-19T06:04:55.534Z,676.00
2018-09-19T06:05:55.405Z,684.00
2018-09-19T06:06:55.364Z,696.00
2018-09-19T06:07:55.315Z,708.00
2018-09-19T06:08:55.276Z,716.00
2018-09-19T06:09:55.228Z,724.00
2018-09-19T06:10:55.191Z,736.00
2018-09-19T06:11:55.142Z,744.00
2018-09-19T06:12:55.135Z,756.00
2018-09-19T06:13:55.055Z,772.00
2018-09-19T06:14:55.034Z,784.00
2018-09-19T06:15:54.966Z,796.00
2018-09-19T06:16:54.921Z,808.00
2018-09-19T06:17:54.876Z,820.00
2018-09-19T06:18:54.832Z,832.00
2018-09-19T06:19:54.789Z,844.00
2018-09-19T06:20:54.749Z,856.00
2018-09-19T06:21:54.703Z,860.00
2018-09-19T06:22:54.657Z,880.00
2018-09-19T06:23:54.622Z,900.00
2018-09-19T06:24:54.573Z,916.00
2018-09-19T06:25:54.525Z,932.00
2018-09-19T06:26:54.513Z,912.00
2018-09-19T06:27:54.439Z,964.00
2018-09-19T06:28:54.395Z,988.00
2018-09-19T06:29:54.354Z,1000.00
2018-09-19T06:30:54.317Z,1016.00
2018-09-19T06:31:54.267Z,1036.00
2018-09-19T06:32:54.265Z,1048.00
2018-09-19T06:33:54.181Z,1064.00
2018-09-19T06:34:54.139Z,1076.00
2018-09-19T06:35:54.100Z,1092.00
2018-09-19T06:36:54.101Z,1100.00
2018-09-19T06:37:54.006Z,1116.00
2018-09-19T06:38:53.962Z,1136.00
2018-09-19T06:39:53.988Z,1160.00
2018-09-19T06:40:53.974Z,1176.00
2018-09-19T06:41:53.833Z,1092.00
2018-09-19T06:42:53.789Z,1220.00
2018-09-19T06:43:53.747Z,1240.00
2018-09-19T06:44:53.701Z,1260.00
2018-09-19T06:45:53.659Z,1284.00
2018-09-19T06:46:53.682Z,1312.00
2018-09-19T06:47:53.577Z,1312.00
2018-09-19T06:48:53.530Z,1356.00
2018-09-19T06:49:53.489Z,1384.00
2018-09-19T06:50:53.446Z,1316.00
2018-09-19T06:51:53.428Z,1504.00
2018-09-19T06:52:53.361Z,1740.00
2018-09-19T06:53:53.318Z,1816.00
2018-09-19T06:54:53.277Z,1464.00
2018-09-19T06:55:53.236Z,2008.00
2018-09-19T06:56:53.186Z,1704.00
2018-09-19T06:57:53.143Z,1580.00
2018-09-19T06:58:53.104Z,2292.00
2018-09-19T06:59:53.130Z,2300.00
2018-09-19T07:00:53.019Z,2268.00
2018-09-19T07:01:52.983Z,2220.00
2018-09-19T07:02:52.930Z,2196.00
2018-09-19T07:03:52.890Z,2192.00
2018-09-19T07:04:52.849Z,2208.00
2018-09-19T07:05:52.834Z,2220.00
2018-09-19T07:06:52.784Z,2196.00
2018-09-19T07:07:52.726Z,2180.00
2018-09-19T07:08:52.685Z,2148.00
2018-09-19T07:09:52.636Z,2128.00
2018-09-19T07:10:52.603Z,2116.00
2018-09-19T07:11:52.553Z,2108.00
2018-09-19T07:12:52.511Z,2120.00
2018-09-19T07:13:52.474Z,2116.00
2018-09-19T07:14:52.430Z,2104.00
2018-09-19T07:15:52.386Z,2096.00
2018-09-19T07:16:52.344Z,2092.00
2018-09-19T07:17:52.310Z,2096.00
2018-09-19T07:18:52.328Z,2100.00
2018-09-19T07:19:52.222Z,2108.00
2018-09-19T07:20:52.182Z,2084.00
2018-09-19T07:21:52.141Z,2076.00
2018-09-19T07:22:52.097Z,2076.00
2018-09-19T07:23:52.102Z,2076.00
2018-09-19T07:24:52.014Z,2076.00
2018-09-19T07:25:52.004Z,2072.00
2018-09-19T07:26:51.931Z,2088.00
2018-09-19T07:27:51.895Z,2104.00
2018-09-19T07:28:51.849Z,2096.00
2018-09-19T07:29:51.825Z,2112.00
2018-09-19T07:30:51.815Z,2120.00
2018-09-19T07:31:51.726Z,2140.00
2018-09-19T07:32:51.690Z,2156.00
2018-09-19T07:33:51.641Z,2188.00
2018-09-19T07:34:51.600Z,2220.00
2018-09-19T07:35:51.563Z,2252.00
2018-09-19T07:36:51.527Z,2268.00
2018-09-19T07:37:51.478Z,2296.00
2018-09-19T07:38:51.468Z,2308.00
2018-09-19T07:39:51.408Z,2308.00
2018-09-19T07:40:51.356Z,2296.00
2018-09-19T07:41:51.314Z,2288.00
2018-09-19T07:42:51.279Z,2248.00
2018-09-19T07:43:51.236Z,2256.00
2018-09-19T07:44:51.192Z,2252.00
2018-09-19T07:45:51.162Z,2276.00
2018-09-19T07:46:51.114Z,2280.00
2018-09-19T07:47:51.081Z,2268.00
2018-09-19T07:48:51.032Z,2272.00
2018-09-19T07:49:51.015Z,2272.00
2018-09-19T07:50:50.949Z,2276.00
2018-09-19T07:51:50.939Z,2276.00
2018-09-19T07:52:50.871Z,2296.00
2018-09-19T07:53:50.829Z,2312.00
2018-09-19T07:54:50.788Z,2324.00
2018-09-19T07:55:50.774Z,2336.00
2018-09-19T07:56:50.735Z,2344.00
2018-09-19T07:57:50.667Z,2348.00
2018-09-19T07:58:50.628Z,2340.00
2018-09-19T07:59:50.601Z,2340.00
2018-09-19T08:00:50.768Z,2324.00
2018-09-19T08:01:50.510Z,2348.00
2018-09-19T08:02:50.481Z,2324.00
2018-09-19T08:03:50.430Z,1976.00
2018-09-19T08:04:50.393Z,1560.00
2018-09-19T08:05:50.354Z,1856.00
2018-09-19T08:06:50.311Z,2160.00
2018-09-19T08:07:50.323Z,2112.00
2018-09-19T08:08:50.239Z,2248.00
2018-09-19T08:09:50.211Z,2488.00
2018-09-19T08:10:50.153Z,2540.00
2018-09-19T08:11:50.149Z,2544.00
2018-09-19T08:12:50.072Z,2544.00
2018-09-19T08:13:50.030Z,2540.00
2018-09-19T08:14:49.994Z,2536.00
2018-09-19T08:15:49.995Z,2540.00
2018-09-19T08:16:49.936Z,2536.00
2018-09-19T08:17:49.874Z,2520.00
2018-09-19T08:18:49.897Z,2532.00
2018-09-19T08:19:49.792Z,2524.00
2018-09-19T08:20:49.764Z,2536.00
2018-09-19T08:21:49.713Z,2532.00
2018-09-19T08:22:49.768Z,2504.00
2018-09-19T08:23:49.634Z,2452.00
2018-09-19T08:24:49.598Z,2508.00
2018-09-19T08:25:49.560Z,2536.00
2018-09-19T08:26:49.521Z,2564.00
2018-09-19T08:27:49.499Z,2588.00
2018-09-19T08:28:49.443Z,2600.00
2018-09-19T08:29:49.400Z,2324.00
2018-09-19T08:30:49.362Z,2560.00
2018-09-19T08:31:49.332Z,2576.00
2018-09-19T08:32:49.289Z,2556.00
2018-09-19T08:33:49.249Z,2548.00
2018-09-19T08:34:49.213Z,2556.00
2018-09-19T08:35:49.170Z,2596.00
2018-09-19T08:36:49.130Z,2584.00
2018-09-19T08:37:49.095Z,2612.00
2018-09-19T08:38:49.052Z,2636.00
2018-09-19T08:39:49.028Z,2612.00
2018-09-19T08:40:48.983Z,2652.00
2018-09-19T08:41:48.936Z,2740.00
2018-09-19T08:42:48.907Z,3040.00
2018-09-19T08:43:48.864Z,3292.00
2018-09-19T08:44:48.824Z,3072.00
2018-09-19T08:45:48.786Z,2428.00
2018-09-19T08:46:48.749Z,2140.00
2018-09-19T08:47:48.711Z,1504.00
2018-09-19T08:48:48.670Z,1664.00
2018-09-19T08:49:48.630Z,2600.00
2018-09-19T08:50:48.689Z,2676.00
2018-09-19T08:51:48.565Z,2652.00
2018-09-19T08:52:48.518Z,2672.00
2018-09-19T08:53:48.541Z,2664.00
2018-09-19T08:54:48.439Z,2656.00
2018-09-19T08:55:48.402Z,2632.00
2018-09-19T08:56:48.368Z,2628.00
2018-09-19T08:57:48.323Z,2624.00
2018-09-19T08:58:48.291Z,2604.00
2018-09-19T08:59:48.249Z,2608.00
2018-09-19T09:00:48.211Z,2608.00
2018-09-19T09:01:48.169Z,2624.00
2018-09-19T09:02:48.139Z,2616.00
2018-09-19T09:03:48.099Z,2604.00
2018-09-19T09:04:48.062Z,2596.00
2018-09-19T09:05:48.027Z,2596.00
2018-09-19T09:06:47.978Z,2328.00
2018-09-19T09:07:47.941Z,2596.00
2018-09-19T09:08:47.907Z,2584.00
2018-09-19T09:09:47.866Z,2484.00
2018-09-19T09:10:47.827Z,2584.00
2018-09-19T09:11:47.790Z,2580.00
2018-09-19T09:12:47.946Z,2516.00
2018-09-19T09:13:47.715Z,2492.00
2018-09-19T09:14:47.673Z,2432.00
2018-09-19T09:15:47.639Z,2428.00
2018-09-19T09:16:47.597Z,2464.00
2018-09-19T09:17:47.560Z,2444.00
2018-09-19T09:18:47.524Z,2556.00
2018-09-19T09:19:47.521Z,2816.00
2018-09-19T09:20:47.446Z,3224.00
2018-09-19T09:21:47.411Z,3528.00
2018-09-19T09:22:47.373Z,3528.00
2018-09-19T09:23:47.335Z,3200.00
2018-09-19T09:24:47.292Z,3028.00
2018-09-19T09:25:47.256Z,2872.00
2018-09-19T09:26:47.251Z,2824.00
2018-09-19T09:27:47.182Z,2404.00
2018-09-19T09:28:47.144Z,2336.00
2018-09-19T09:29:47.112Z,2892.00
2018-09-19T09:30:47.068Z,3148.00
2018-09-19T09:31:47.035Z,3212.00
2018-09-19T09:32:46.992Z,2688.00
2018-09-19T09:33:46.957Z,2316.00
2018-09-19T09:34:46.923Z,2480.00
2018-09-19T09:35:46.879Z,2424.00
2018-09-19T09:36:46.878Z,2444.00
2018-09-19T09:37:46.801Z,2400.00
2018-09-19T09:38:46.763Z,2464.00
2018-09-19T09:39:46.726Z,2480.00
2018-09-19T09:40:48.743Z,2456.00
2018-09-19T09:41:46.649Z,2464.00
2018-09-19T09:42:46.611Z,2492.00
2018-09-19T09:43:46.577Z,2464.00
2018-09-19T09:44:46.580Z,2512.00
2018-09-19T09:45:46.504Z,2528.00
2018-09-19T09:46:46.460Z,2544.00
2018-09-19T09:47:46.427Z,2536.00
2018-09-19T09:48:46.387Z,2532.00
2018-09-19T09:49:46.349Z,2552.00
2018-09-19T09:50:46.320Z,2544.00
2018-09-19T09:51:46.280Z,2524.00
2018-09-19T09:52:46.237Z,2536.00
2018-09-19T09:53:46.203Z,2768.00
2018-09-19T09:54:46.161Z,2780.00
2018-09-19T09:55:46.124Z,2836.00
2018-09-19T09:56:46.087Z,2804.00
2018-09-19T09:57:46.049Z,2872.00
2018-09-19T09:58:46.013Z,2900.00
2018-09-19T09:59:45.980Z,2876.00
2018-09-19T10:00:45.936Z,2948.00
2018-09-19T10:01:45.900Z,2668.00
2018-09-19T10:02:45.860Z,2896.00
2018-09-19T10:03:45.823Z,2880.00
2018-09-19T10:04:45.786Z,2912.00
2018-09-19T10:05:45.748Z,2924.00
2018-09-19T10:06:45.711Z,2984.00
2018-09-19T10:07:45.674Z,3096.00
2018-09-19T10:08:45.657Z,3288.00
2018-09-19T10:09:45.599Z,3288.00
2018-09-19T10:10:45.560Z,3320.00
2018-09-19T10:11:45.526Z,3264.00
2018-09-19T10:12:45.486Z,3288.00
2018-09-19T10:13:45.488Z,3260.00
2018-09-19T10:14:45.411Z,3348.00
2018-09-19T10:15:45.376Z,3656.00
2018-09-19T10:16:45.337Z,3940.00
2018-09-19T10:17:45.298Z,4272.00
2018-09-19T10:18:45.262Z,4676.00
2018-09-19T10:19:45.227Z,4632.00
2018-09-19T10:20:45.190Z,3076.00
2018-09-19T10:21:45.165Z,2824.00
2018-09-19T10:22:45.114Z,2936.00
2018-09-19T10:23:45.079Z,1692.00
2018-09-19T10:24:45.042Z,3704.00
2018-09-19T10:25:45.051Z,2328.00
2018-09-19T10:26:44.967Z,2984.00
2018-09-19T10:27:44.929Z,3684.00
2018-09-19T10:28:44.894Z,3192.00
2018-09-19T10:29:44.895Z,4480.00
2018-09-19T10:30:44.818Z,3004.00
2018-09-19T10:31:44.779Z,4780.00
2018-09-19T10:32:44.742Z,4796.00
2018-09-19T10:33:44.704Z,4160.00
2018-09-19T10:34:44.668Z,1940.00
2018-09-19T10:35:44.630Z,2600.00
2018-09-19T10:36:44.592Z,4316.00
2018-09-19T10:37:44.554Z,4148.00
2018-09-19T10:38:44.581Z,2364.00
2018-09-19T10:39:44.493Z,2988.00
2018-09-19T10:40:44.444Z,4532.00
2018-09-19T10:41:49.509Z,4320.00
2018-09-19T10:42:44.371Z,3780.00
2018-09-19T10:43:44.350Z,4276.00
2018-09-19T10:44:44.295Z,3152.00
2018-09-19T10:45:44.272Z,2720.00
2018-09-19T10:46:44.229Z,3348.00
2018-09-19T10:47:44.278Z,4628.00
2018-09-19T10:48:44.147Z,4524.00
2018-09-19T10:49:44.109Z,3268.00
2018-09-19T10:50:44.082Z,3396.00
2018-09-19T10:51:44.143Z,3160.00
2018-09-19T10:52:43.999Z,3144.00
2018-09-19T10:53:43.962Z,3440.00
2018-09-19T10:54:43.922Z,4288.00
2018-09-19T10:55:43.972Z,2744.00
2018-09-19T10:56:43.903Z,4112.00
2018-09-19T10:57:43.816Z,3824.00
2018-09-19T10:58:43.863Z,3664.00
2018-09-19T10:59:43.999Z,3848.00
2018-09-19T11:00:43.703Z,2184.00
2018-09-19T11:01:43.671Z,2296.00
2018-09-19T11:02:43.659Z,2492.00
2018-09-19T11:03:43.699Z,2836.00
2018-09-19T11:04:43.589Z,4060.00
2018-09-19T11:05:43.528Z,3120.00
2018-09-19T11:06:43.478Z,4660.00
2018-09-19T11:07:43.492Z,4816.00
2018-09-19T11:08:43.404Z,4032.00
2018-09-19T11:09:43.439Z,4612.00
2018-09-19T11:10:43.330Z,4748.00
2018-09-19T11:11:43.293Z,4324.00
2018-09-19T11:12:43.258Z,3816.00
2018-09-19T11:13:43.216Z,3928.00
2018-09-19T11:14:43.182Z,4416.00
2018-09-19T11:15:43.147Z,4436.00
2018-09-19T11:16:43.134Z,4536.00
2018-09-19T11:17:43.075Z,4296.00
2018-09-19T11:18:43.035Z,4020.00
2018-09-19T11:19:42.997Z,3408.00
2018-09-19T11:20:42.964Z,4220.00
2018-09-19T11:21:43.027Z,4200.00
2018-09-19T11:22:42.888Z,3600.00
2018-09-19T11:23:42.871Z,3612.00
2018-09-19T11:24:42.812Z,3980.00
2018-09-19T11:25:42.783Z,4568.00
2018-09-19T11:26:42.740Z,4980.00
2018-09-19T11:27:42.702Z,4768.00
2018-09-19T11:28:42.665Z,4160.00
2018-09-19T11:29:42.633Z,4200.00
2018-09-19T11:30:42.591Z,2296.00
2018-09-19T11:31:42.556Z,3504.00
2018-09-19T11:32:42.525Z,3572.00
2018-09-19T11:33:42.536Z,4484.00
2018-09-19T11:34:42.444Z,4692.00
2018-09-19T11:35:42.413Z,2448.00
2018-09-19T11:36:42.467Z,1948.00
2018-09-19T11:37:42.428Z,3932.00
2018-09-19T11:38:42.353Z,2512.00
2018-09-19T11:39:42.279Z,2744.00
2018-09-19T11:40:42.300Z,3180.00
2018-09-19T11:41:42.187Z,2668.00
2018-09-19T11:42:42.152Z,2564.00
2018-09-19T11:43:42.117Z,2616.00
2018-09-19T11:44:42.077Z,3952.00
2018-09-19T11:45:42.041Z,4568.00
2018-09-19T11:46:42.007Z,3016.00
2018-09-19T11:47:41.975Z,2492.00
2018-09-19T11:48:41.945Z,2052.00
2018-09-19T11:49:41.894Z,2584.00
2018-09-19T11:50:41.864Z,3716.00
2018-09-19T11:51:41.820Z,4036.00
2018-09-19T11:52:41.784Z,2932.00
2018-09-19T11:53:41.746Z,2272.00
2018-09-19T11:54:41.709Z,2180.00
2018-09-19T11:55:41.671Z,2152.00
2018-09-19T11:56:41.634Z,2136.00
2018-09-19T11:57:41.603Z,2348.00
2018-09-19T11:58:41.563Z,2520.00
2018-09-19T11:59:41.525Z,5116.00
2018-09-19T12:00:41.486Z,2368.00
2018-09-19T12:01:41.447Z,2464.00
2018-09-19T12:02:41.410Z,2520.00
2018-09-19T12:03:41.377Z,2768.00
2018-09-19T12:04:41.340Z,2848.00
2018-09-19T12:05:41.297Z,6696.00
2018-09-19T12:06:41.264Z,6452.00
2018-09-19T12:07:41.224Z,6384.00
2018-09-19T12:08:41.187Z,6264.00
2018-09-19T12:09:41.151Z,6036.00
2018-09-19T12:10:41.112Z,6240.00
2018-09-19T12:11:41.074Z,6076.00
2018-09-19T12:12:41.040Z,5020.00
2018-09-19T12:13:41.001Z,5352.00
2018-09-19T12:14:40.964Z,5600.00
2018-09-19T12:15:40.925Z,5660.00
2018-09-19T12:16:40.890Z,5832.00
2018-09-19T12:17:40.854Z,5752.00
2018-09-19T12:18:40.829Z,5624.00
2018-09-19T12:19:40.793Z,5828.00
2018-09-19T12:20:40.750Z,5684.00
2018-09-19T12:21:40.708Z,5964.00
2018-09-19T12:22:40.673Z,5708.00
2018-09-19T12:23:40.637Z,5536.00
2018-09-19T12:24:40.598Z,5296.00
2018-09-19T12:25:40.564Z,5024.00
2018-09-19T12:26:40.608Z,5016.00
2018-09-19T12:27:40.493Z,3896.00
2018-09-19T12:28:40.458Z,4396.00
2018-09-19T12:29:40.421Z,3936.00
2018-09-19T12:30:40.386Z,3492.00
2018-09-19T12:31:40.350Z,3440.00
2018-09-19T12:32:40.313Z,3316.00
2018-09-19T12:33:40.278Z,3720.00
2018-09-19T12:34:40.247Z,3636.00
2018-09-19T12:35:40.208Z,3732.00